sensor_id;sensor_type;location;lat;lon;timestamp;temperature;humidity
49218;DHT22;35045;51.194;7.268;2023-04-03T00:02:11;3.10;99.90
49218;DHT22;35045;51.194;7.268;2023-04-03T00:04:37;3.10;99.90
49218;DHT22;35045;51.194;7.268;2023-04-03T00:07:03;3.00;99.90
49218;DHT22;35045;51.194;7.268;2023-04-03T00:09:29;3.00;99.90
49218;DHT22;35045;51.194;7.268;2023-04-03T00:11:55;3.10;99.90
49218;DHT22;35045;51.194;7.268;2023-04-03T00:14:22;3.00;99.90
49218;DHT22;35045;51.194;7.268;2023-04-03T00:16:48;3.10;99.90
49218;DHT22;35045;51.194;7.268;2023-04-03T00:19:14;3.00;99.90
49218;DHT22;35045;51.194;7.268;2023-04-03T00:21:40;3.00;99.90
49218;DHT22;35045;51.194;7.268;2023-04-03T00:24:07;3.00;99.90
49218;DHT22;35045;51.194;7.268;2023-04-03T00:26:33;3.00;99.90
49218;DHT22;35045;51.194;7.268;2023-04-03T00:28:59;3.00;99.90
49218;DHT22;35045;51.194;7.268;2023-04-03T00:31:25;3.00;99.90
49218;DHT22;35045;51.194;7.268;2023-04-03T00:33:51;3.00;99.90
49218;DHT22;35045;51.194;7.268;2023-04-03T00:36:17;3.00;99.90
49218;DHT22;35045;51.194;7.268;2023-04-03T00:38:44;2.90;99.90
49218;DHT22;35045;51.194;7.268;2023-04-03T00:41:10;2.90;99.90
49218;DHT22;35045;51.194;7.268;2023-04-03T00:43:36;2.80;99.90
49218;DHT22;35045;51.194;7.268;2023-04-03T00:46:02;2.90;99.90
49218;DHT22;35045;51.194;7.268;2023-04-03T00:48:49;2.90;99.90
49218;DHT22;35045;51.194;7.268;2023-04-03T00:51:20;2.80;99.90
49218;DHT22;35045;51.194;7.268;2023-04-03T00:53:50;2.80;99.90
49218;DHT22;35045;51.194;7.268;2023-04-03T00:56:20;2.90;99.90
49218;DHT22;35045;51.194;7.268;2023-04-03T00:59:02;2.90;99.90
49218;DHT22;35045;51.194;7.268;2023-04-03T01:01:30;2.90;99.90
49218;DHT22;35045;51.194;7.268;2023-04-03T01:03:58;2.90;99.90
49218;DHT22;35045;51.194;7.268;2023-04-03T01:06:32;2.80;99.90
49218;DHT22;35045;51.194;7.268;2023-04-03T01:08:59;2.80;99.90
49218;DHT22;35045;51.194;7.268;2023-04-03T01:11:26;2.80;99.90
49218;DHT22;35045;51.194;7.268;2023-04-03T01:13:52;2.70;99.90
49218;DHT22;35045;51.194;7.268;2023-04-03T01:16:19;2.70;99.90
49218;DHT22;35045;51.194;7.268;2023-04-03T01:18:45;2.70;99.90
49218;DHT22;35045;51.194;7.268;2023-04-03T01:24:36;2.70;99.90
49218;DHT22;35045;51.194;7.268;2023-04-03T01:27:06;2.70;99.90
49218;DHT22;35045;51.194;7.268;2023-04-03T01:29:33;2.60;99.90
49218;DHT22;35045;51.194;7.268;2023-04-03T01:32:01;2.60;99.90
49218;DHT22;35045;51.194;7.268;2023-04-03T01:34:28;2.70;99.90
49218;DHT22;35045;51.194;7.268;2023-04-03T01:36:55;2.60;99.90
49218;DHT22;35045;51.194;7.268;2023-04-03T01:39:22;2.60;99.90
49218;DHT22;35045;51.194;7.268;2023-04-03T01:41:49;2.60;99.90
49218;DHT22;35045;51.194;7.268;2023-04-03T01:44:15;2.60;99.90
49218;DHT22;35045;51.194;7.268;2023-04-03T01:46:42;2.60;99.90
49218;DHT22;35045;51.194;7.268;2023-04-03T01:49:08;2.60;99.90
49218;DHT22;35045;51.194;7.268;2023-04-03T01:51:34;2.60;99.90
49218;DHT22;35045;51.194;7.268;2023-04-03T01:54:00;2.60;99.90
49218;DHT22;35045;51.194;7.268;2023-04-03T01:56:27;2.60;99.90
49218;DHT22;35045;51.194;7.268;2023-04-03T01:58:53;2.60;99.90
49218;DHT22;35045;51.194;7.268;2023-04-03T02:01:19;2.60;99.90
49218;DHT22;35045;51.194;7.268;2023-04-03T02:03:45;2.60;99.90
49218;DHT22;35045;51.194;7.268;2023-04-03T02:06:12;2.60;99.90
49218;DHT22;35045;51.194;7.268;2023-04-03T02:08:38;2.60;99.90
49218;DHT22;35045;51.194;7.268;2023-04-03T02:11:04;2.60;99.90
49218;DHT22;35045;51.194;7.268;2023-04-03T02:13:30;2.60;99.90
49218;DHT22;35045;51.194;7.268;2023-04-03T02:15:57;2.60;99.90
49218;DHT22;35045;51.194;7.268;2023-04-03T02:18:23;2.50;99.90
49218;DHT22;35045;51.194;7.268;2023-04-03T02:20:49;2.50;99.90
49218;DHT22;35045;51.194;7.268;2023-04-03T02:23:15;2.50;99.90
49218;DHT22;35045;51.194;7.268;2023-04-03T02:25:41;2.50;99.90
49218;DHT22;35045;51.194;7.268;2023-04-03T02:28:07;2.50;99.90
49218;DHT22;35045;51.194;7.268;2023-04-03T02:30:34;2.60;99.90
49218;DHT22;35045;51.194;7.268;2023-04-03T02:33:00;2.60;99.90
49218;DHT22;35045;51.194;7.268;2023-04-03T02:35:26;2.60;99.90
49218;DHT22;35045;51.194;7.268;2023-04-03T02:37:52;2.60;99.90
49218;DHT22;35045;51.194;7.268;2023-04-03T02:40:19;2.60;99.90
49218;DHT22;35045;51.194;7.268;2023-04-03T02:42:45;2.60;99.90
49218;DHT22;35045;51.194;7.268;2023-04-03T02:45:11;2.60;99.90
49218;DHT22;35045;51.194;7.268;2023-04-03T02:47:37;2.60;99.90
49218;DHT22;35045;51.194;7.268;2023-04-03T02:50:04;2.60;99.90
49218;DHT22;35045;51.194;7.268;2023-04-03T02:52:30;2.60;99.90
49218;DHT22;35045;51.194;7.268;2023-04-03T02:54:56;2.50;99.90
49218;DHT22;35045;51.194;7.268;2023-04-03T02:57:23;2.60;99.90
49218;DHT22;35045;51.194;7.268;2023-04-03T02:59:49;2.60;99.90
49218;DHT22;35045;51.194;7.268;2023-04-03T03:02:15;2.60;99.90
49218;DHT22;35045;51.194;7.268;2023-04-03T03:04:41;2.60;99.90
49218;DHT22;35045;51.194;7.268;2023-04-03T03:07:08;2.70;99.90
49218;DHT22;35045;51.194;7.268;2023-04-03T03:09:34;2.70;99.90
49218;DHT22;35045;51.194;7.268;2023-04-03T03:12:00;2.60;99.90
49218;DHT22;35045;51.194;7.268;2023-04-03T03:14:26;2.70;99.90
49218;DHT22;35045;51.194;7.268;2023-04-03T03:16:53;2.70;99.90
49218;DHT22;35045;51.194;7.268;2023-04-03T03:19:19;2.70;99.90
49218;DHT22;35045;51.194;7.268;2023-04-03T03:21:45;2.60;99.90
49218;DHT22;35045;51.194;7.268;2023-04-03T03:24:11;2.60;99.90
49218;DHT22;35045;51.194;7.268;2023-04-03T03:26:38;2.50;99.90
49218;DHT22;35045;51.194;7.268;2023-04-03T03:29:04;2.50;99.90
49218;DHT22;35045;51.194;7.268;2023-04-03T03:31:30;2.60;99.90
49218;DHT22;35045;51.194;7.268;2023-04-03T03:33:56;2.50;99.90
49218;DHT22;35045;51.194;7.268;2023-04-03T03:36:22;2.50;99.90
49218;DHT22;35045;51.194;7.268;2023-04-03T03:38:48;2.60;99.90
49218;DHT22;35045;51.194;7.268;2023-04-03T03:41:15;2.70;99.90
49218;DHT22;35045;51.194;7.268;2023-04-03T03:43:41;2.60;99.90
49218;DHT22;35045;51.194;7.268;2023-04-03T03:46:07;2.60;99.90
49218;DHT22;35045;51.194;7.268;2023-04-03T03:48:33;2.60;99.90
49218;DHT22;35045;51.194;7.268;2023-04-03T03:51:00;2.50;99.90
49218;DHT22;35045;51.194;7.268;2023-04-03T03:53:26;2.60;99.90
49218;DHT22;35045;51.194;7.268;2023-04-03T03:55:52;2.60;99.90
49218;DHT22;35045;51.194;7.268;2023-04-03T03:58:18;2.60;99.90
49218;DHT22;35045;51.194;7.268;2023-04-03T04:00:44;2.60;99.90
49218;DHT22;35045;51.194;7.268;2023-04-03T04:03:11;2.70;99.90
49218;DHT22;35045;51.194;7.268;2023-04-03T04:05:37;2.60;99.90
49218;DHT22;35045;51.194;7.268;2023-04-03T04:08:03;2.60;99.90
49218;DHT22;35045;51.194;7.268;2023-04-03T04:10:29;2.60;99.90
49218;DHT22;35045;51.194;7.268;2023-04-03T04:12:55;2.40;99.90
49218;DHT22;35045;51.194;7.268;2023-04-03T04:15:23;2.40;99.90
49218;DHT22;35045;51.194;7.268;2023-04-03T04:17:50;2.30;99.90
49218;DHT22;35045;51.194;7.268;2023-04-03T04:20:16;2.40;99.90
49218;DHT22;35045;51.194;7.268;2023-04-03T04:22:42;2.30;99.90
49218;DHT22;35045;51.194;7.268;2023-04-03T04:25:08;2.30;99.90
49218;DHT22;35045;51.194;7.268;2023-04-03T04:27:35;2.20;99.90
49218;DHT22;35045;51.194;7.268;2023-04-03T04:30:01;2.20;99.90
49218;DHT22;35045;51.194;7.268;2023-04-03T04:32:27;2.20;99.90
49218;DHT22;35045;51.194;7.268;2023-04-03T04:34:53;2.00;99.90
49218;DHT22;35045;51.194;7.268;2023-04-03T04:37:19;2.00;99.90
49218;DHT22;35045;51.194;7.268;2023-04-03T04:39:45;2.00;99.90
49218;DHT22;35045;51.194;7.268;2023-04-03T04:42:12;1.90;99.90
49218;DHT22;35045;51.194;7.268;2023-04-03T04:44:39;1.90;99.90
49218;DHT22;35045;51.194;7.268;2023-04-03T04:47:06;1.90;99.90
49218;DHT22;35045;51.194;7.268;2023-04-03T04:49:32;1.90;99.90
49218;DHT22;35045;51.194;7.268;2023-04-03T04:51:58;1.80;99.90
49218;DHT22;35045;51.194;7.268;2023-04-03T04:54:24;1.70;99.90
49218;DHT22;35045;51.194;7.268;2023-04-03T04:56:50;1.70;99.90
49218;DHT22;35045;51.194;7.268;2023-04-03T04:59:17;1.70;99.90
49218;DHT22;35045;51.194;7.268;2023-04-03T05:01:43;1.70;99.90
49218;DHT22;35045;51.194;7.268;2023-04-03T05:04:10;1.70;99.90
49218;DHT22;35045;51.194;7.268;2023-04-03T05:06:38;1.80;99.90
49218;DHT22;35045;51.194;7.268;2023-04-03T05:09:05;1.90;99.90
49218;DHT22;35045;51.194;7.268;2023-04-03T05:11:31;1.90;99.90
49218;DHT22;35045;51.194;7.268;2023-04-03T05:13:57;2.00;99.90
49218;DHT22;35045;51.194;7.268;2023-04-03T05:16:23;2.00;99.90
49218;DHT22;35045;51.194;7.268;2023-04-03T05:18:50;2.00;99.90
49218;DHT22;35045;51.194;7.268;2023-04-03T05:21:16;2.00;99.90
49218;DHT22;35045;51.194;7.268;2023-04-03T05:23:44;2.00;99.90
49218;DHT22;35045;51.194;7.268;2023-04-03T05:26:10;2.00;99.90
49218;DHT22;35045;51.194;7.268;2023-04-03T05:28:36;1.90;99.90
49218;DHT22;35045;51.194;7.268;2023-04-03T05:31:02;1.90;99.90
49218;DHT22;35045;51.194;7.268;2023-04-03T05:33:29;2.00;99.90
49218;DHT22;35045;51.194;7.268;2023-04-03T05:35:55;2.00;99.90
49218;DHT22;35045;51.194;7.268;2023-04-03T05:38:21;2.00;99.90
49218;DHT22;35045;51.194;7.268;2023-04-03T05:40:47;2.00;99.90
49218;DHT22;35045;51.194;7.268;2023-04-03T05:43:13;2.00;99.90
49218;DHT22;35045;51.194;7.268;2023-04-03T05:45:40;2.00;99.90
49218;DHT22;35045;51.194;7.268;2023-04-03T05:48:06;2.00;99.90
49218;DHT22;35045;51.194;7.268;2023-04-03T05:50:32;2.10;99.90
49218;DHT22;35045;51.194;7.268;2023-04-03T05:52:59;2.20;99.90
49218;DHT22;35045;51.194;7.268;2023-04-03T05:55:25;2.10;99.90
49218;DHT22;35045;51.194;7.268;2023-04-03T05:57:51;2.20;99.90
49218;DHT22;35045;51.194;7.268;2023-04-03T06:00:18;2.20;99.90
49218;DHT22;35045;51.194;7.268;2023-04-03T06:02:44;2.20;99.90
49218;DHT22;35045;51.194;7.268;2023-04-03T06:05:10;2.20;99.90
49218;DHT22;35045;51.194;7.268;2023-04-03T06:07:38;2.20;99.90
49218;DHT22;35045;51.194;7.268;2023-04-03T06:10:05;2.20;99.90
49218;DHT22;35045;51.194;7.268;2023-04-03T06:12:31;2.20;99.90
49218;DHT22;35045;51.194;7.268;2023-04-03T06:14:57;2.30;99.90
49218;DHT22;35045;51.194;7.268;2023-04-03T06:17:24;2.30;99.90
49218;DHT22;35045;51.194;7.268;2023-04-03T06:19:50;2.40;99.90
49218;DHT22;35045;51.194;7.268;2023-04-03T06:22:16;2.30;99.90
49218;DHT22;35045;51.194;7.268;2023-04-03T06:24:43;2.30;99.90
49218;DHT22;35045;51.194;7.268;2023-04-03T06:27:10;2.20;99.90
49218;DHT22;35045;51.194;7.268;2023-04-03T06:29:37;2.20;99.90
49218;DHT22;35045;51.194;7.268;2023-04-03T06:32:03;2.20;99.90
49218;DHT22;35045;51.194;7.268;2023-04-03T06:34:29;2.20;99.90
49218;DHT22;35045;51.194;7.268;2023-04-03T06:36:55;2.20;99.90
49218;DHT22;35045;51.194;7.268;2023-04-03T06:39:22;2.40;99.90
49218;DHT22;35045;51.194;7.268;2023-04-03T06:41:49;2.50;99.90
49218;DHT22;35045;51.194;7.268;2023-04-03T06:44:16;2.50;99.90
49218;DHT22;35045;51.194;7.268;2023-04-03T06:46:44;2.50;99.90
49218;DHT22;35045;51.194;7.268;2023-04-03T06:49:11;2.50;99.90
49218;DHT22;35045;51.194;7.268;2023-04-03T06:51:37;2.50;99.90
49218;DHT22;35045;51.194;7.268;2023-04-03T06:54:05;2.40;99.90
49218;DHT22;35045;51.194;7.268;2023-04-03T06:56:32;2.40;99.90
49218;DHT22;35045;51.194;7.268;2023-04-03T06:58:58;2.40;99.90
49218;DHT22;35045;51.194;7.268;2023-04-03T07:01:26;2.40;99.90
49218;DHT22;35045;51.194;7.268;2023-04-03T07:03:54;2.50;99.90
49218;DHT22;35045;51.194;7.268;2023-04-03T07:06:21;2.60;99.90
49218;DHT22;35045;51.194;7.268;2023-04-03T07:08:47;2.60;99.90
49218;DHT22;35045;51.194;7.268;2023-04-03T07:11:15;2.60;99.90
49218;DHT22;35045;51.194;7.268;2023-04-03T07:13:41;2.70;99.90
49218;DHT22;35045;51.194;7.268;2023-04-03T07:16:08;2.90;99.90
49218;DHT22;35045;51.194;7.268;2023-04-03T07:18:35;3.00;99.90
49218;DHT22;35045;51.194;7.268;2023-04-03T07:21:03;3.10;99.90
49218;DHT22;35045;51.194;7.268;2023-04-03T07:23:29;3.30;99.90
49218;DHT22;35045;51.194;7.268;2023-04-03T07:25:55;3.50;99.90
49218;DHT22;35045;51.194;7.268;2023-04-03T07:28:23;3.60;99.90
49218;DHT22;35045;51.194;7.268;2023-04-03T07:30:54;3.80;99.90
49218;DHT22;35045;51.194;7.268;2023-04-03T07:33:22;4.00;99.90
49218;DHT22;35045;51.194;7.268;2023-04-03T07:35:48;4.00;99.90
49218;DHT22;35045;51.194;7.268;2023-04-03T07:38:15;4.00;99.90
49218;DHT22;35045;51.194;7.268;2023-04-03T07:40:49;4.20;99.90
49218;DHT22;35045;51.194;7.268;2023-04-03T07:43:16;4.20;99.90
49218;DHT22;35045;51.194;7.268;2023-04-03T07:45:43;4.20;99.90
49218;DHT22;35045;51.194;7.268;2023-04-03T07:48:13;4.20;99.90
49218;DHT22;35045;51.194;7.268;2023-04-03T07:50:42;4.30;99.90
49218;DHT22;35045;51.194;7.268;2023-04-03T07:53:09;4.40;99.90
49218;DHT22;35045;51.194;7.268;2023-04-03T07:55:35;4.40;99.90
49218;DHT22;35045;51.194;7.268;2023-04-03T07:58:10;4.40;99.90
49218;DHT22;35045;51.194;7.268;2023-04-03T08:00:37;4.60;99.90
49218;DHT22;35045;51.194;7.268;2023-04-03T08:03:04;4.70;99.90
49218;DHT22;35045;51.194;7.268;2023-04-03T08:05:31;4.80;99.90
49218;DHT22;35045;51.194;7.268;2023-04-03T08:07:57;4.80;99.90
49218;DHT22;35045;51.194;7.268;2023-04-03T08:10:23;4.80;99.90
49218;DHT22;35045;51.194;7.268;2023-04-03T08:12:50;4.90;99.90
49218;DHT22;35045;51.194;7.268;2023-04-03T08:15:18;4.90;99.90
49218;DHT22;35045;51.194;7.268;2023-04-03T08:17:44;4.90;99.90
49218;DHT22;35045;51.194;7.268;2023-04-03T08:20:11;4.90;99.90
49218;DHT22;35045;51.194;7.268;2023-04-03T08:22:37;4.80;99.90
49218;DHT22;35045;51.194;7.268;2023-04-03T08:25:04;4.80;99.90
49218;DHT22;35045;51.194;7.268;2023-04-03T08:27:30;5.00;99.90
49218;DHT22;35045;51.194;7.268;2023-04-03T08:29:56;5.10;99.90
49218;DHT22;35045;51.194;7.268;2023-04-03T08:32:23;5.20;99.40
49218;DHT22;35045;51.194;7.268;2023-04-03T08:34:51;5.20;99.20
49218;DHT22;35045;51.194;7.268;2023-04-03T08:37:18;5.40;98.20
49218;DHT22;35045;51.194;7.268;2023-04-03T08:39:45;5.50;98.90
49218;DHT22;35045;51.194;7.268;2023-04-03T08:42:30;5.80;99.60
49218;DHT22;35045;51.194;7.268;2023-04-03T08:45:13;6.00;98.90
49218;DHT22;35045;51.194;7.268;2023-04-03T08:48:04;6.00;98.10
49218;DHT22;35045;51.194;7.268;2023-04-03T08:50:37;6.00;97.20
49218;DHT22;35045;51.194;7.268;2023-04-03T08:53:06;6.00;96.00
49218;DHT22;35045;51.194;7.268;2023-04-03T08:55:47;6.00;96.40
49218;DHT22;35045;51.194;7.268;2023-04-03T08:58:21;6.00;95.80
49218;DHT22;35045;51.194;7.268;2023-04-03T09:01:00;6.00;95.60
49218;DHT22;35045;51.194;7.268;2023-04-03T09:03:38;6.10;95.30
49218;DHT22;35045;51.194;7.268;2023-04-03T09:06:20;6.20;95.30
49218;DHT22;35045;51.194;7.268;2023-04-03T09:14:36;6.60;95.20
49218;DHT22;35045;51.194;7.268;2023-04-03T09:20:03;6.80;94.80
49218;DHT22;35045;51.194;7.268;2023-04-03T09:22:32;7.10;94.60
49218;DHT22;35045;51.194;7.268;2023-04-03T09:25:24;7.10;94.30
49218;DHT22;35045;51.194;7.268;2023-04-03T09:27:51;7.10;94.30
49218;DHT22;35045;51.194;7.268;2023-04-03T09:30:21;7.20;94.20
49218;DHT22;35045;51.194;7.268;2023-04-03T09:32:51;7.10;93.20
49218;DHT22;35045;51.194;7.268;2023-04-03T09:35:32;7.10;93.30
49218;DHT22;35045;51.194;7.268;2023-04-03T09:40:39;6.80;93.80
49218;DHT22;35045;51.194;7.268;2023-04-03T09:43:28;6.80;94.80
49218;DHT22;35045;51.194;7.268;2023-04-03T09:45:55;7.00;94.70
49218;DHT22;35045;51.194;7.268;2023-04-03T09:48:24;6.70;93.50
49218;DHT22;35045;51.194;7.268;2023-04-03T09:53:41;6.90;95.20
49218;DHT22;35045;51.194;7.268;2023-04-03T09:58:50;7.30;94.40
49218;DHT22;35045;51.194;7.268;2023-04-03T10:01:33;7.30;93.90
49218;DHT22;35045;51.194;7.268;2023-04-03T10:04:15;7.30;94.00
49218;DHT22;35045;51.194;7.268;2023-04-03T10:07:02;7.30;92.70
49218;DHT22;35045;51.194;7.268;2023-04-03T10:09:31;7.00;93.30
49218;DHT22;35045;51.194;7.268;2023-04-03T10:11:58;7.00;93.70
49218;DHT22;35045;51.194;7.268;2023-04-03T10:14:29;7.30;94.70
49218;DHT22;35045;51.194;7.268;2023-04-03T10:17:17;7.50;92.90
49218;DHT22;35045;51.194;7.268;2023-04-03T10:20:19;7.80;93.30
49218;DHT22;35045;51.194;7.268;2023-04-03T10:25:50;8.20;92.40
49218;DHT22;35045;51.194;7.268;2023-04-03T10:28:25;8.00;91.00
49218;DHT22;35045;51.194;7.268;2023-04-03T10:33:53;7.80;93.20
49218;DHT22;35045;51.194;7.268;2023-04-03T10:39:38;7.70;91.10
49218;DHT22;35045;51.194;7.268;2023-04-03T10:45:10;7.30;92.10
49218;DHT22;35045;51.194;7.268;2023-04-03T10:56:25;7.60;91.60
49218;DHT22;35045;51.194;7.268;2023-04-03T10:58:58;8.10;92.10
49218;DHT22;35045;51.194;7.268;2023-04-03T11:01:35;8.50;91.50
49218;DHT22;35045;51.194;7.268;2023-04-03T11:04:06;8.90;90.00
49218;DHT22;35045;51.194;7.268;2023-04-03T11:06:44;8.80;86.20
49218;DHT22;35045;51.194;7.268;2023-04-03T11:09:22;8.80;90.50
49218;DHT22;35045;51.194;7.268;2023-04-03T11:11:53;9.10;88.90
49218;DHT22;35045;51.194;7.268;2023-04-03T11:14:35;9.40;90.00
49218;DHT22;35045;51.194;7.268;2023-04-03T11:17:15;9.40;83.60
49218;DHT22;35045;51.194;7.268;2023-04-03T11:22:45;8.90;83.20
49218;DHT22;35045;51.194;7.268;2023-04-03T11:25:14;8.70;81.50
49218;DHT22;35045;51.194;7.268;2023-04-03T11:27:59;8.50;82.90
49218;DHT22;35045;51.194;7.268;2023-04-03T11:30:43;8.80;86.60
49218;DHT22;35045;51.194;7.268;2023-04-03T11:33:21;9.10;83.20
49218;DHT22;35045;51.194;7.268;2023-04-03T11:35:55;9.10;84.90
49218;DHT22;35045;51.194;7.268;2023-04-03T11:38:28;9.20;82.80
49218;DHT22;35045;51.194;7.268;2023-04-03T11:40:57;9.00;82.80
49218;DHT22;35045;51.194;7.268;2023-04-03T11:43:26;9.00;86.20
49218;DHT22;35045;51.194;7.268;2023-04-03T11:45:58;9.30;83.20
49218;DHT22;35045;51.194;7.268;2023-04-03T11:50:55;9.80;79.90
49218;DHT22;35045;51.194;7.268;2023-04-03T11:53:35;9.50;81.10
49218;DHT22;35045;51.194;7.268;2023-04-03T11:56:06;9.60;78.90
49218;DHT22;35045;51.194;7.268;2023-04-03T12:01:55;9.40;77.10
49218;DHT22;35045;51.194;7.268;2023-04-03T12:04:26;9.30;77.00
49218;DHT22;35045;51.194;7.268;2023-04-03T12:07:00;9.40;79.70
49218;DHT22;35045;51.194;7.268;2023-04-03T12:11:58;9.50;76.40
49218;DHT22;35045;51.194;7.268;2023-04-03T12:14:25;9.50;79.00
49218;DHT22;35045;51.194;7.268;2023-04-03T12:16:54;9.90;79.80
49218;DHT22;35045;51.194;7.268;2023-04-03T12:19:37;10.20;77.20
49218;DHT22;35045;51.194;7.268;2023-04-03T12:22:11;10.50;78.80
49218;DHT22;35045;51.194;7.268;2023-04-03T12:24:47;10.80;80.20
49218;DHT22;35045;51.194;7.268;2023-04-03T12:32:37;11.40;76.30
49218;DHT22;35045;51.194;7.268;2023-04-03T12:35:39;11.50;73.00
49218;DHT22;35045;51.194;7.268;2023-04-03T12:41:16;10.90;73.10
49218;DHT22;35045;51.194;7.268;2023-04-03T12:46:42;10.80;72.40
49218;DHT22;35045;51.194;7.268;2023-04-03T12:49:39;10.60;71.30
49218;DHT22;35045;51.194;7.268;2023-04-03T12:52:26;10.70;75.50
49218;DHT22;35045;51.194;7.268;2023-04-03T12:54:56;11.30;76.50
49218;DHT22;35045;51.194;7.268;2023-04-03T12:57:26;11.80;74.80
49218;DHT22;35045;51.194;7.268;2023-04-03T12:59:54;11.70;71.30
49218;DHT22;35045;51.194;7.268;2023-04-03T13:04:53;12.00;75.70
49218;DHT22;35045;51.194;7.268;2023-04-03T13:07:29;12.50;72.00
49218;DHT22;35045;51.194;7.268;2023-04-03T13:10:00;12.60;72.70
49218;DHT22;35045;51.194;7.268;2023-04-03T13:12:27;13.00;71.60
49218;DHT22;35045;51.194;7.268;2023-04-03T13:14:57;13.30;72.20
49218;DHT22;35045;51.194;7.268;2023-04-03T13:17:24;13.60;71.60
49218;DHT22;35045;51.194;7.268;2023-04-03T13:19:51;13.70;70.30
49218;DHT22;35045;51.194;7.268;2023-04-03T13:22:33;13.90;71.40
49218;DHT22;35045;51.194;7.268;2023-04-03T13:25:07;14.20;70.30
49218;DHT22;35045;51.194;7.268;2023-04-03T13:27:35;14.50;69.50
49218;DHT22;35045;51.194;7.268;2023-04-03T13:30:03;14.30;69.70
49218;DHT22;35045;51.194;7.268;2023-04-03T13:32:30;14.40;68.00
49218;DHT22;35045;51.194;7.268;2023-04-03T13:34:58;14.30;66.90
49218;DHT22;35045;51.194;7.268;2023-04-03T13:37:30;13.90;67.10
49218;DHT22;35045;51.194;7.268;2023-04-03T13:42:31;14.30;69.10
49218;DHT22;35045;51.194;7.268;2023-04-03T13:45:27;14.60;68.30
49218;DHT22;35045;51.194;7.268;2023-04-03T13:48:18;15.00;67.40
49218;DHT22;35045;51.194;7.268;2023-04-03T13:51:03;15.30;68.10
49218;DHT22;35045;51.194;7.268;2023-04-03T13:53:32;15.20;65.30
49218;DHT22;35045;51.194;7.268;2023-04-03T13:58:30;15.40;65.50
49218;DHT22;35045;51.194;7.268;2023-04-03T14:01:18;15.60;66.60
49218;DHT22;35045;51.194;7.268;2023-04-03T14:03:58;15.50;65.70
49218;DHT22;35045;51.194;7.268;2023-04-03T14:06:25;15.80;66.40
49218;DHT22;35045;51.194;7.268;2023-04-03T14:08:51;15.50;62.50
49218;DHT22;35045;51.194;7.268;2023-04-03T14:11:20;14.70;61.40
49218;DHT22;35045;51.194;7.268;2023-04-03T14:13:49;14.60;64.80
49218;DHT22;35045;51.194;7.268;2023-04-03T14:16:22;14.60;63.50
49218;DHT22;35045;51.194;7.268;2023-04-03T14:18:49;15.00;65.70
49218;DHT22;35045;51.194;7.268;2023-04-03T14:21:18;15.10;62.60
49218;DHT22;35045;51.194;7.268;2023-04-03T14:23:45;15.00;63.80
49218;DHT22;35045;51.194;7.268;2023-04-03T14:26:16;15.40;63.90
49218;DHT22;35045;51.194;7.268;2023-04-03T14:28:48;15.60;64.50
49218;DHT22;35045;51.194;7.268;2023-04-03T14:31:16;15.40;61.30
49218;DHT22;35045;51.194;7.268;2023-04-03T14:33:42;14.60;61.80
49218;DHT22;35045;51.194;7.268;2023-04-03T14:38:38;13.60;63.00
49218;DHT22;35045;51.194;7.268;2023-04-03T14:41:05;13.70;65.60
49218;DHT22;35045;51.194;7.268;2023-04-03T14:43:35;14.50;66.30
49218;DHT22;35045;51.194;7.268;2023-04-03T14:46:01;15.50;64.10
49218;DHT22;35045;51.194;7.268;2023-04-03T14:48:28;15.10;65.30
49218;DHT22;35045;51.194;7.268;2023-04-03T14:50:56;15.30;63.70
49218;DHT22;35045;51.194;7.268;2023-04-03T14:53:27;15.70;62.60
49218;DHT22;35045;51.194;7.268;2023-04-03T14:56:05;15.10;62.50
49218;DHT22;35045;51.194;7.268;2023-04-03T14:58:35;15.20;62.20
49218;DHT22;35045;51.194;7.268;2023-04-03T15:01:02;15.20;62.50
49218;DHT22;35045;51.194;7.268;2023-04-03T15:03:28;15.10;60.40
49218;DHT22;35045;51.194;7.268;2023-04-03T15:05:55;14.70;62.20
49218;DHT22;35045;51.194;7.268;2023-04-03T15:08:24;14.40;61.70
49218;DHT22;35045;51.194;7.268;2023-04-03T15:10:51;14.70;63.60
49218;DHT22;35045;51.194;7.268;2023-04-03T15:13:22;14.90;63.80
49218;DHT22;35045;51.194;7.268;2023-04-03T15:15:49;15.20;61.70
49218;DHT22;35045;51.194;7.268;2023-04-03T15:18:22;15.60;64.80
49218;DHT22;35045;51.194;7.268;2023-04-03T15:20:49;15.90;63.30
49218;DHT22;35045;51.194;7.268;2023-04-03T15:23:16;16.00;61.00
49218;DHT22;35045;51.194;7.268;2023-04-03T15:25:44;15.60;62.10
49218;DHT22;35045;51.194;7.268;2023-04-03T15:30:48;16.30;63.40
49218;DHT22;35045;51.194;7.268;2023-04-03T15:33:14;16.20;61.80
49218;DHT22;35045;51.194;7.268;2023-04-03T15:35:42;16.60;62.50
49218;DHT22;35045;51.194;7.268;2023-04-03T15:38:08;16.50;61.70
49218;DHT22;35045;51.194;7.268;2023-04-03T15:40:34;15.90;61.00
49218;DHT22;35045;51.194;7.268;2023-04-03T15:43:01;16.00;61.40
49218;DHT22;35045;51.194;7.268;2023-04-03T15:45:30;16.40;60.80
49218;DHT22;35045;51.194;7.268;2023-04-03T15:47:57;16.30;61.30
49218;DHT22;35045;51.194;7.268;2023-04-03T15:50:23;16.20;61.70
49218;DHT22;35045;51.194;7.268;2023-04-03T15:52:51;16.70;60.70
49218;DHT22;35045;51.194;7.268;2023-04-03T15:55:21;16.70;61.30
49218;DHT22;35045;51.194;7.268;2023-04-03T15:57:47;17.20;60.80
49218;DHT22;35045;51.194;7.268;2023-04-03T16:00:14;17.40;59.20
49218;DHT22;35045;51.194;7.268;2023-04-03T16:02:42;17.70;59.30
49218;DHT22;35045;51.194;7.268;2023-04-03T16:05:09;17.50;56.50
49218;DHT22;35045;51.194;7.268;2023-04-03T16:07:38;16.90;56.90
49218;DHT22;35045;51.194;7.268;2023-04-03T16:10:05;16.80;59.70
49218;DHT22;35045;51.194;7.268;2023-04-03T16:12:32;17.30;58.60
49218;DHT22;35045;51.194;7.268;2023-04-03T16:14:58;16.50;58.60
49218;DHT22;35045;51.194;7.268;2023-04-03T16:17:26;16.40;58.50
49218;DHT22;35045;51.194;7.268;2023-04-03T16:19:54;15.70;58.90
49218;DHT22;35045;51.194;7.268;2023-04-03T16:22:22;15.90;59.70
49218;DHT22;35045;51.194;7.268;2023-04-03T16:24:49;15.50;60.20
49218;DHT22;35045;51.194;7.268;2023-04-03T16:27:16;15.50;61.30
49218;DHT22;35045;51.194;7.268;2023-04-03T16:29:42;15.40;59.70
49218;DHT22;35045;51.194;7.268;2023-04-03T16:32:08;14.50;60.90
49218;DHT22;35045;51.194;7.268;2023-04-03T16:34:35;13.70;62.10
49218;DHT22;35045;51.194;7.268;2023-04-03T16:37:01;13.40;63.70
49218;DHT22;35045;51.194;7.268;2023-04-03T16:39:27;13.40;62.70
49218;DHT22;35045;51.194;7.268;2023-04-03T16:41:53;13.20;62.80
49218;DHT22;35045;51.194;7.268;2023-04-03T16:44:20;13.20;62.50
49218;DHT22;35045;51.194;7.268;2023-04-03T16:46:46;12.80;63.60
49218;DHT22;35045;51.194;7.268;2023-04-03T16:49:12;12.80;63.50
49218;DHT22;35045;51.194;7.268;2023-04-03T16:51:38;12.90;64.20
49218;DHT22;35045;51.194;7.268;2023-04-03T16:54:05;12.70;62.90
49218;DHT22;35045;51.194;7.268;2023-04-03T16:56:32;12.30;63.80
49218;DHT22;35045;51.194;7.268;2023-04-03T16:58:59;12.30;65.10
49218;DHT22;35045;51.194;7.268;2023-04-03T17:01:25;12.40;65.50
49218;DHT22;35045;51.194;7.268;2023-04-03T17:03:51;13.00;64.90
49218;DHT22;35045;51.194;7.268;2023-04-03T17:06:20;13.60;62.30
49218;DHT22;35045;51.194;7.268;2023-04-03T17:08:48;14.10;61.60
49218;DHT22;35045;51.194;7.268;2023-04-03T17:11:16;14.10;62.80